sensor_id;sensor_type;location;lat;lon;timestamp;pressure;altitude;pressure_sealevel;temperature;humidity
30614;BME280;17381;51.690;5.270;2023-01-28T00:00:30;102914.25;;;3.57;75.76
30614;BME280;17381;51.690;5.270;2023-01-28T00:02:59;102922.09;;;3.58;76.04
30614;BME280;17381;51.690;5.270;2023-01-28T00:05:31;102916.47;;;3.46;75.63
30614;BME280;17381;51.690;5.270;2023-01-28T00:08:01;102925.25;;;3.49;75.46
30614;BME280;17381;51.690;5.270;2023-01-28T00:10:32;102929.50;;;3.47;75.50
30614;BME280;17381;51.690;5.270;2023-01-28T00:13:11;102931.34;;;3.50;75.74
30614;BME280;17381;51.690;5.270;2023-01-28T00:15:58;102941.72;;;3.50;74.92
30614;BME280;17381;51.690;5.270;2023-01-28T00:18:28;102935.53;;;3.46;74.80
30614;BME280;17381;51.690;5.270;2023-01-28T00:21:06;102920.47;;;3.38;74.66
30614;BME280;17381;51.690;5.270;2023-01-28T00:23:40;102933.81;;;3.47;74.81
30614;BME280;17381;51.690;5.270;2023-01-28T00:26:13;102903.22;;;3.40;75.26
30614;BME280;17381;51.690;5.270;2023-01-28T00:28:52;102925.03;;;3.43;74.87
30614;BME280;17381;51.690;5.270;2023-01-28T00:31:31;102924.09;;;3.41;74.36
30614;BME280;17381;51.690;5.270;2023-01-28T00:34:11;102929.31;;;3.43;74.92
30614;BME280;17381;51.690;5.270;2023-01-28T00:36:42;102929.31;;;3.43;74.94
30614;BME280;17381;51.690;5.270;2023-01-28T00:39:26;102922.38;;;3.42;75.01
30614;BME280;17381;51.690;5.270;2023-01-28T00:41:55;102926.09;;;3.48;74.95
30614;BME280;17381;51.690;5.270;2023-01-28T00:44:33;102940.84;;;3.49;75.61
30614;BME280;17381;51.690;5.270;2023-01-28T00:47:12;102926.69;;;3.41;75.08
30614;BME280;17381;51.690;5.270;2023-01-28T00:49:49;102939.91;;;3.47;75.10
30614;BME280;17381;51.690;5.270;2023-01-28T00:52:20;102940.47;;;3.39;75.14
30614;BME280;17381;51.690;5.270;2023-01-28T00:54:59;102948.25;;;3.39;75.54
30614;BME280;17381;51.690;5.270;2023-01-28T00:57:26;102947.47;;;3.41;75.49
30614;BME280;17381;51.690;5.270;2023-01-28T00:59:53;102950.13;;;3.43;75.87
30614;BME280;17381;51.690;5.270;2023-01-28T01:02:30;102933.53;;;3.39;75.75
30614;BME280;17381;51.690;5.270;2023-01-28T01:05:07;102936.31;;;3.44;76.13
30614;BME280;17381;51.690;5.270;2023-01-28T01:07:33;102950.19;;;3.44;76.14
30614;BME280;17381;51.690;5.270;2023-01-28T01:10:26;102943.28;;;3.45;75.90
30614;BME280;17381;51.690;5.270;2023-01-28T01:13:01;102943.06;;;3.39;76.13
30614;BME280;17381;51.690;5.270;2023-01-28T01:15:33;102945.66;;;3.39;76.33
30614;BME280;17381;51.690;5.270;2023-01-28T01:18:05;102932.66;;;3.39;76.17
30614;BME280;17381;51.690;5.270;2023-01-28T01:20:31;102945.00;;;3.44;76.36
30614;BME280;17381;51.690;5.270;2023-01-28T01:23:01;102898.19;;;3.20;75.92
30614;BME280;17381;51.690;5.270;2023-01-28T01:25:34;102938.97;;;3.45;75.98
30614;BME280;17381;51.690;5.270;2023-01-28T01:28:27;102933.75;;;3.45;75.63
30614;BME280;17381;51.690;5.270;2023-01-28T01:31:20;102933.72;;;3.44;75.89
30614;BME280;17381;51.690;5.270;2023-01-28T01:33:58;102934.50;;;3.41;75.82
30614;BME280;17381;51.690;5.270;2023-01-28T01:36:30;102932.56;;;3.36;75.94
30614;BME280;17381;51.690;5.270;2023-01-28T01:39:01;102943.09;;;3.40;75.43
30614;BME280;17381;51.690;5.270;2023-01-28T01:41:31;102923.63;;;3.29;75.99
30614;BME280;17381;51.690;5.270;2023-01-28T01:44:04;102930.53;;;3.28;75.72
30614;BME280;17381;51.690;5.270;2023-01-28T01:46:46;102934.19;;;3.34;75.70
30614;BME280;17381;51.690;5.270;2023-01-28T01:49:27;102939.50;;;3.37;75.69
30614;BME280;17381;51.690;5.270;2023-01-28T01:52:26;102939.41;;;3.34;75.75
30614;BME280;17381;51.690;5.270;2023-01-28T01:55:16;102941.91;;;3.32;75.13
30614;BME280;17381;51.690;5.270;2023-01-28T01:57:54;102934.97;;;3.31;75.92
30614;BME280;17381;51.690;5.270;2023-01-28T02:00:27;102935.72;;;3.28;75.60
30614;BME280;17381;51.690;5.270;2023-01-28T02:02:58;102940.81;;;3.25;75.22
30614;BME280;17381;51.690;5.270;2023-01-28T02:05:30;102943.41;;;3.25;74.99
30614;BME280;17381;51.690;5.270;2023-01-28T02:08:09;102934.41;;;3.17;75.27
30614;BME280;17381;51.690;5.270;2023-01-28T02:10:54;102958.06;;;3.23;75.56
30614;BME280;17381;51.690;5.270;2023-01-28T02:13:45;102950.31;;;3.25;75.16
30614;BME280;17381;51.690;5.270;2023-01-28T02:16:21;102946.78;;;3.23;75.29
30614;BME280;17381;51.690;5.270;2023-01-28T02:18:54;102927.38;;;3.15;75.61
30614;BME280;17381;51.690;5.270;2023-01-28T02:31:22;102945.75;;;3.19;75.73
30614;BME280;17381;51.690;5.270;2023-01-28T02:37:14;102941.34;;;3.17;75.39
30614;BME280;17381;51.690;5.270;2023-01-28T02:40:24;102927.25;;;3.10;75.68
30614;BME280;17381;51.690;5.270;2023-01-28T02:43:19;102934.97;;;3.09;75.00
30614;BME280;17381;51.690;5.270;2023-01-28T02:45:58;102944.66;;;3.13;75.37
30614;BME280;17381;51.690;5.270;2023-01-28T02:48:58;102951.53;;;3.12;75.18
30614;BME280;17381;51.690;5.270;2023-01-28T03:06:52;102957.09;;;2.99;75.02
30614;BME280;17381;51.690;5.270;2023-01-28T03:09:27;102953.53;;;2.97;75.09
30614;BME280;17381;51.690;5.270;2023-01-28T03:12:26;102960.50;;;2.98;74.55
30614;BME280;17381;51.690;5.270;2023-01-28T03:15:29;102956.09;;;2.95;74.49
30614;BME280;17381;51.690;5.270;2023-01-28T03:18:44;102955.06;;;2.92;74.96
30614;BME280;17381;51.690;5.270;2023-01-28T03:21:43;102948.09;;;2.91;75.01
30614;BME280;17381;51.690;5.270;2023-01-28T03:24:50;102948.88;;;2.88;74.46
30614;BME280;17381;51.690;5.270;2023-01-28T03:28:04;102966.09;;;2.86;75.10
30614;BME280;17381;51.690;5.270;2023-01-28T03:31:05;102965.97;;;2.83;74.35
30614;BME280;17381;51.690;5.270;2023-01-28T03:34:07;102941.66;;;2.81;75.18
30614;BME280;17381;51.690;5.270;2023-01-28T03:37:07;102937.97;;;2.76;74.99
30614;BME280;17381;51.690;5.270;2023-01-28T03:39:53;102939.78;;;2.77;74.29
30614;BME280;17381;51.690;5.270;2023-01-28T03:42:38;102947.00;;;2.84;74.56
30614;BME280;17381;51.690;5.270;2023-01-28T03:45:36;102955.59;;;2.83;74.89
30614;BME280;17381;51.690;5.270;2023-01-28T03:48:04;102966.03;;;2.84;75.15
30614;BME280;17381;51.690;5.270;2023-01-28T03:50:56;102911.16;;;2.54;74.60
30614;BME280;17381;51.690;5.270;2023-01-28T03:53:32;102973.06;;;2.87;75.06
30614;BME280;17381;51.690;5.270;2023-01-28T03:56:17;102960.00;;;2.86;74.73
30614;BME280;17381;51.690;5.270;2023-01-28T03:59:02;102967.88;;;2.87;74.92
30614;BME280;17381;51.690;5.270;2023-01-28T04:01:34;102966.09;;;2.86;74.79
30614;BME280;17381;51.690;5.270;2023-01-28T04:04:00;102970.47;;;2.87;74.98
30614;BME280;17381;51.690;5.270;2023-01-28T04:06:34;102968.66;;;2.84;74.83
30614;BME280;17381;51.690;5.270;2023-01-28T04:09:29;102980.88;;;2.87;74.49
30614;BME280;17381;51.690;5.270;2023-01-28T04:12:23;102915.34;;;2.51;74.63
30614;BME280;17381;51.690;5.270;2023-01-28T04:14:54;102978.28;;;2.87;75.20
30614;BME280;17381;51.690;5.270;2023-01-28T04:17:38;102978.31;;;2.89;74.60
30614;BME280;17381;51.690;5.270;2023-01-28T04:20:15;102983.59;;;2.90;74.64
30614;BME280;17381;51.690;5.270;2023-01-28T04:22:48;102980.91;;;2.89;74.58
30614;BME280;17381;51.690;5.270;2023-01-28T04:25:22;102971.25;;;2.84;74.78
30614;BME280;17381;51.690;5.270;2023-01-28T04:28:00;102971.34;;;2.88;74.40
30614;BME280;17381;51.690;5.270;2023-01-28T04:30:38;102969.59;;;2.87;74.81
30614;BME280;17381;51.690;5.270;2023-01-28T04:33:38;102964.91;;;2.78;74.47
30614;BME280;17381;51.690;5.270;2023-01-28T04:36:31;102973.41;;;2.74;74.96
30614;BME280;17381;51.690;5.270;2023-01-28T04:39:30;102964.97;;;2.79;74.84
30614;BME280;17381;51.690;5.270;2023-01-28T04:42:20;102979.66;;;2.79;74.45
30614;BME280;17381;51.690;5.270;2023-01-28T04:45:24;102974.47;;;2.79;74.96
30614;BME280;17381;51.690;5.270;2023-01-28T04:48:32;102968.25;;;2.75;75.05
30614;BME280;17381;51.690;5.270;2023-01-28T04:51:22;102970.84;;;2.75;74.97
30614;BME280;17381;51.690;5.270;2023-01-28T04:54:23;102961.94;;;2.69;74.10
30614;BME280;17381;51.690;5.270;2023-01-28T04:57:13;102985.63;;;2.76;73.90
30614;BME280;17381;51.690;5.270;2023-01-28T04:59:48;102984.72;;;2.76;73.75
30614;BME280;17381;51.690;5.270;2023-01-28T05:02:15;102985.47;;;2.73;74.32
30614;BME280;17381;51.690;5.270;2023-01-28T05:04:56;102995.28;;;2.80;74.43
30614;BME280;17381;51.690;5.270;2023-01-28T05:08:03;102991.75;;;2.78;73.66
30614;BME280;17381;51.690;5.270;2023-01-28T05:10:41;102994.50;;;2.81;73.67
30614;BME280;17381;51.690;5.270;2023-01-28T05:13:36;102994.22;;;2.75;74.21
30614;BME280;17381;51.690;5.270;2023-01-28T05:16:10;103006.53;;;2.79;73.47
30614;BME280;17381;51.690;5.270;2023-01-28T05:18:57;102996.13;;;2.79;73.32
30614;BME280;17381;51.690;5.270;2023-01-28T05:21:32;102977.53;;;2.69;72.12
30614;BME280;17381;51.690;5.270;2023-01-28T05:24:05;102988.16;;;2.75;72.73
30614;BME280;17381;51.690;5.270;2023-01-28T05:26:38;102980.28;;;2.73;72.62
30614;BME280;17381;51.690;5.270;2023-01-28T05:29:05;102919.94;;;2.37;72.23
30614;BME280;17381;51.690;5.270;2023-01-28T05:31:41;102985.63;;;2.76;72.13
30614;BME280;17381;51.690;5.270;2023-01-28T05:34:17;102977.63;;;2.72;72.13
30614;BME280;17381;51.690;5.270;2023-01-28T05:37:05;102976.00;;;2.74;72.12
30614;BME280;17381;51.690;5.270;2023-01-28T05:39:39;102917.31;;;2.35;72.62
30614;BME280;17381;51.690;5.270;2023-01-28T05:42:11;102910.41;;;2.36;72.03
30614;BME280;17381;51.690;5.270;2023-01-28T05:47:51;102960.56;;;2.56;72.25
30614;BME280;17381;51.690;5.270;2023-01-28T05:50:37;102993.25;;;2.73;72.37
30614;BME280;17381;51.690;5.270;2023-01-28T05:53:16;102984.59;;;2.73;72.07
30614;BME280;17381;51.690;5.270;2023-01-28T05:55:47;102989.03;;;2.75;72.32
30614;BME280;17381;51.690;5.270;2023-01-28T05:58:42;102954.28;;;2.51;72.23
30614;BME280;17381;51.690;5.270;2023-01-28T06:01:17;102982.50;;;2.64;72.41
30614;BME280;17381;51.690;5.270;2023-01-28T06:04:09;102975.16;;;2.54;72.23
30614;BME280;17381;51.690;5.270;2023-01-28T06:06:55;102992.06;;;2.65;72.14
30614;BME280;17381;51.690;5.270;2023-01-28T06:09:27;102988.50;;;2.63;72.06
30614;BME280;17381;51.690;5.270;2023-01-28T06:12:42;102988.50;;;2.63;72.10
30614;BME280;17381;51.690;5.270;2023-01-28T06:15:35;102985.91;;;2.63;72.11
30614;BME280;17381;51.690;5.270;2023-01-28T06:18:28;102980.03;;;2.67;71.92
30614;BME280;17381;51.690;5.270;2023-01-28T06:21:07;102991.31;;;2.68;72.65
30614;BME280;17381;51.690;5.270;2023-01-28T06:23:40;102987.81;;;2.67;72.17
30614;BME280;17381;51.690;5.270;2023-01-28T06:26:34;102946.22;;;2.45;72.89
30614;BME280;17381;51.690;5.270;2023-01-28T06:29:50;102980.88;;;2.66;72.08
30614;BME280;17381;51.690;5.270;2023-01-28T06:32:19;102979.03;;;2.64;72.35
30614;BME280;17381;51.690;5.270;2023-01-28T06:34:54;102991.25;;;2.66;72.25
30614;BME280;17381;51.690;5.270;2023-01-28T06:37:31;103001.81;;;2.71;72.46
30614;BME280;17381;51.690;5.270;2023-01-28T06:40:05;102997.47;;;2.70;72.65
30614;BME280;17381;51.690;5.270;2023-01-28T06:43:17;102994.78;;;2.68;73.04
30614;BME280;17381;51.690;5.270;2023-01-28T06:45:47;102950.66;;;2.47;72.91
30614;BME280;17381;51.690;5.270;2023-01-28T06:49:11;102994.97;;;2.73;72.53
30614;BME280;17381;51.690;5.270;2023-01-28T07:07:58;103014.47;;;2.63;72.68
30614;BME280;17381;51.690;5.270;2023-01-28T07:10:32;102981.66;;;2.44;73.33
30614;BME280;17381;51.690;5.270;2023-01-28T07:29:09;103035.75;;;2.54;72.75
30614;BME280;17381;51.690;5.270;2023-01-28T07:32:00;103045.13;;;2.51;72.89
30614;BME280;17381;51.690;5.270;2023-01-28T07:38:32;102956.13;;;1.93;72.03
30614;BME280;17381;51.690;5.270;2023-01-28T07:45:20;103055.91;;;2.40;72.34
30614;BME280;17381;51.690;5.270;2023-01-28T07:48:06;103048.25;;;2.44;72.16
30614;BME280;17381;51.690;5.270;2023-01-28T07:50:32;103048.88;;;2.38;71.73
30614;BME280;17381;51.690;5.270;2023-01-28T07:53:12;103007.25;;;2.15;72.34
30614;BME280;17381;51.690;5.270;2023-01-28T07:56:07;103024.13;;;2.25;71.36
30614;BME280;17381;51.690;5.270;2023-01-28T07:59:00;103025.06;;;2.27;71.82
30614;BME280;17381;51.690;5.270;2023-01-28T08:01:53;103061.16;;;2.42;71.96
30614;BME280;17381;51.690;5.270;2023-01-28T08:04:33;103066.31;;;2.40;71.19
30614;BME280;17381;51.690;5.270;2023-01-28T08:07:12;103049.44;;;2.31;70.79
30614;BME280;17381;51.690;5.270;2023-01-28T08:09:47;103079.28;;;2.40;70.74
30614;BME280;17381;51.690;5.270;2023-01-28T08:12:13;103079.28;;;2.40;70.89
30614;BME280;17381;51.690;5.270;2023-01-28T08:14:51;103085.47;;;2.44;70.96
30614;BME280;17381;51.690;5.270;2023-01-28T08:25:29;103087.72;;;2.36;70.70
30614;BME280;17381;51.690;5.270;2023-01-28T08:31:58;103087.59;;;2.33;70.52
30614;BME280;17381;51.690;5.270;2023-01-28T09:21:48;103139.50;;;2.33;70.06
30614;BME280;17381;51.690;5.270;2023-01-28T09:24:31;103146.56;;;2.37;70.75
30614;BME280;17381;51.690;5.270;2023-01-28T09:27:40;103153.78;;;2.43;70.38
30614;BME280;17381;51.690;5.270;2023-01-28T09:31:37;103155.63;;;2.46;70.33
30614;BME280;17381;51.690;5.270;2023-01-28T09:34:53;103160.06;;;2.48;69.86
30614;BME280;17381;51.690;5.270;2023-01-28T12:11:55;102990.81;;;10.02;54.35
30614;BME280;17381;51.690;5.270;2023-01-28T12:42:59;102995.88;;;13.39;45.35
30614;BME280;17381;51.690;5.270;2023-01-28T12:48:09;103008.25;;;12.60;45.20
30614;BME280;17381;51.690;5.270;2023-01-28T12:50:53;103031.00;;;12.06;45.52
30614;BME280;17381;51.690;5.270;2023-01-28T12:53:47;103034.09;;;11.31;44.25
30614;BME280;17381;51.690;5.270;2023-01-28T12:56:46;103040.63;;;10.74;47.36
30614;BME280;17381;51.690;5.270;2023-01-28T13:25:48;102934.22;;;7.91;54.79
30614;BME280;17381;51.690;5.270;2023-01-28T13:28:29;103001.53;;;9.49;54.79
30614;BME280;17381;51.690;5.270;2023-01-28T13:31:10;102952.59;;;10.30;54.83
30614;BME280;17381;51.690;5.270;2023-01-28T13:34:01;102985.75;;;11.23;53.72
30614;BME280;17381;51.690;5.270;2023-01-28T13:36:45;102971.00;;;11.55;53.47
30614;BME280;17381;51.690;5.270;2023-01-28T13:39:59;102946.63;;;12.07;51.77
30614;BME280;17381;51.690;5.270;2023-01-28T13:46:29;102950.13;;;13.14;49.19
30614;BME280;17381;51.690;5.270;2023-01-28T13:49:14;102934.28;;;13.06;49.79
30614;BME280;17381;51.690;5.270;2023-01-28T15:56:15;103070.47;;;5.34;60.94
30614;BME280;17381;51.690;5.270;2023-01-28T16:04:29;103064.53;;;5.11;62.77
30614;BME280;17381;51.690;5.270;2023-01-28T16:23:23;103047.44;;;4.68;64.43
30614;BME280;17381;51.690;5.270;2023-01-28T16:29:20;102968.66;;;3.99;65.40
30614;BME280;17381;51.690;5.270;2023-01-28T16:39:58;103041.34;;;4.42;65.84
30614;BME280;17381;51.690;5.270;2023-01-28T16:42:54;103006.63;;;4.18;66.37
30614;BME280;17381;51.690;5.270;2023-01-28T16:48:48;103064.16;;;4.49;66.79
30614;BME280;17381;51.690;5.270;2023-01-28T16:51:25;103078.22;;;4.54;66.81
30614;BME280;17381;51.690;5.270;2023-01-28T17:06:32;103069.03;;;4.40;67.67
30614;BME280;17381;51.690;5.270;2023-01-28T17:09:26;103039.75;;;4.22;67.45
30614;BME280;17381;51.690;5.270;2023-01-28T17:48:18;103073.75;;;2.94;69.02
30614;BME280;17381;51.690;5.270;2023-01-28T17:50:46;103072.88;;;2.94;68.86
30614;BME280;17381;51.690;5.270;2023-01-28T17:53:22;103067.69;;;2.94;68.79
30614;BME280;17381;51.690;5.270;2023-01-28T17:55:54;103064.00;;;2.89;69.41
30614;BME280;17381;51.690;5.270;2023-01-28T17:58:35;103073.75;;;2.94;69.35
30614;BME280;17381;51.690;5.270;2023-01-28T18:01:16;103085.75;;;2.91;69.61
30614;BME280;17381;51.690;5.270;2023-01-28T18:03:53;103047.78;;;2.73;70.04
30614;BME280;17381;51.690;5.270;2023-01-28T18:06:35;103010.22;;;2.44;69.82
30614;BME280;17381;51.690;5.270;2023-01-28T18:09:04;103102.09;;;2.88;69.61
30614;BME280;17381;51.690;5.270;2023-01-28T18:11:39;103097.00;;;2.91;70.22
30614;BME280;17381;51.690;5.270;2023-01-28T18:14:08;103083.03;;;2.88;70.42
30614;BME280;17381;51.690;5.270;2023-01-28T18:16:36;103076.00;;;2.85;70.72
30614;BME280;17381;51.690;5.270;2023-01-28T18:19:27;103100.50;;;2.92;70.54
30614;BME280;17381;51.690;5.270;2023-01-28T18:21:59;103101.44;;;2.94;70.80
30614;BME280;17381;51.690;5.270;2023-01-28T18:24:31;103104.94;;;2.94;71.01
30614;BME280;17381;51.690;5.270;2023-01-28T18:27:03;103104.31;;;3.00;70.56
30614;BME280;17381;51.690;5.270;2023-01-28T18:29:43;103114.09;;;3.05;71.23
30614;BME280;17381;51.690;5.270;2023-01-28T18:32:29;103093.53;;;2.91;70.64
30614;BME280;17381;51.690;5.270;2023-01-28T18:35:12;103123.44;;;3.02;70.85
30614;BME280;17381;51.690;5.270;2023-01-28T18:38:05;103122.44;;;2.98;70.49
30614;BME280;17381;51.690;5.270;2023-01-28T18:41:05;103112.81;;;2.96;70.59
30614;BME280;17381;51.690;5.270;2023-01-28T18:43:57;103121.22;;;2.90;70.89
30614;BME280;17381;51.690;5.270;2023-01-28T19:16:09;103120.50;;;2.34;72.11
30614;BME280;17381;51.690;5.270;2023-01-28T19:36:32;103099.41;;;2.46;73.31
30614;BME280;17381;51.690;5.270;2023-01-28T21:08:25;103079.47;;;2.26;73.86
30614;BME280;17381;51.690;5.270;2023-01-28T21:27:38;103094.28;;;2.28;74.61
30614;BME280;17381;51.690;5.270;2023-01-28T23:08:56;103066.06;;;1.24;75.83
30614;BME280;17381;51.690;5.270;2023-01-28T23:22:37;103052.31;;;1.07;76.55
30614;BME280;17381;51.690;5.270;2023-01-28T23:25:52;103009.63;;;0.81;76.77
30614;BME280;17381;51.690;5.270;2023-01-28T23:43:35;103048.63;;;1.02;77.09
30614;BME280;17381;51.690;5.270;2023-01-28T23:51:04;103059.78;;;1.01;77.05
